Latest Weather Observations for Amberley

IDQ60801

Issued at 7:12 am EST Monday 28 September 2020 (issued every 10 minutes, with the page automatically refreshed every 10 minutes)

About weather observations | Map of weather stations | Latest weather observations for QLD | Other Formats
Station Details ID: 040004 Name: AMBERLEY AMO Lat: -27.63 Lon: 152.71 Height: 24.2 m
Data from the previous 72 hours. | See also: Recent months at Amberley
Date/Time
EST
Temp
°C
App
Temp
°C
Dew
Point
°C
Rel
Hum
%
Delta-T
°C
Wind Press
QNH
hPa
Press
MSL
hPa
Rain since
9am
mm
Dir  Spd
km/h
Gust
km/h
Spd
kts
Gust
kts
28/07:00am 11.3 8.8 6.4 72 2.3 SSW 9 11 5 6 1024.8 1024.8 0.0
28/06:30am 8.1 6.7 5.7 85 1.1 ESE 2 7 1 4 1024.6 1024.6 0.0
28/06:00am 5.8 4.5 4.3 90 0.6 CALM 0 0 0 0 1024.2 1024.2 0.0
28/05:30am 5.5 4.1 3.5 87 0.8 CALM 0 0 0 0 1023.9 1023.9 0.0
28/05:00am 5.2 2.4 3.4 88 0.7 ESE 7 7 4 4 1023.5 1023.5 0.0
28/04:30am 6.0 3.6 4.2 88 0.8 ESE 6 7 3 4 1023.2 1023.2 0.0
28/04:00am 5.8 4.0 3.6 86 0.9 ESE 2 6 1 3 1023.1 1023.1 0.0
28/03:30am 5.7 4.1 2.7 81 1.2 CALM 0 0 0 0 1022.9 1022.9 0.0
28/03:00am 6.6 4.1 3.6 81 1.3 ESE 6 7 3 4 1023.0 1023.0 0.0
28/02:30am 7.2 4.8 4.3 82 1.3 ESE 6 7 3 4 1023.0 1023.0 0.0
28/02:00am 6.7 4.0 3.5 80 1.3 ESE 7 9 4 5 1023.2 1023.2 0.0
28/01:30am 6.5 3.3 2.9 78 1.5 ESE 9 9 5 5 1023.5 1023.5 0.0
28/01:00am 8.6 6.2 4.2 74 1.9 ESE 6 7 3 4 1023.7 1023.7 0.0
28/12:30am 8.5 5.8 3.9 73 2.0 ESE 7 9 4 5 1023.9 1023.9 0.0
28/12:00am 8.9 7.6 4.3 73 2.0 CALM 0 0 0 0 1023.9 1023.9 0.0
 
Date/Time
EST
Temp
°C
App
Temp
°C
Dew
Point
°C
Rel
Hum
%
Delta-T
°C
Wind Press
QNH
hPa
Press
MSL
hPa
Rain since
9am
mm
Dir  Spd
km/h
Gust
km/h
Spd
kts
Gust
kts
27/11:30pm 9.7 8.4 4.1 68 2.5 CALM 0 0 0 0 1023.9 1023.9 0.0
27/11:00pm 10.3 9.0 4.0 65 2.8 CALM 0 0 0 0 1024.0 1024.0 0.0
27/10:30pm 10.7 8.0 3.7 62 3.1 ESE 7 9 4 5 1023.9 1023.9 0.0
27/10:00pm 12.0 10.7 4.0 58 3.6 CALM 0 0 0 0 1023.6 1023.6 0.0
27/09:30pm 13.7 11.3 4.3 53 4.3 ESE 6 6 3 3 1023.3 1023.3 0.0
27/09:00pm 14.0 11.5 3.8 50 4.6 ESE 6 7 3 4 1023.0 1023.0 0.0
27/08:30pm 15.1 12.0 3.6 46 5.3 E 9 11 5 6 1022.7 1022.7 0.0
27/08:00pm 16.7 12.2 4.1 43 5.9 E 17 20 9 11 1022.0 1022.0 0.0
27/07:30pm 17.3 12.3 3.6 40 6.4 ENE 19 24 10 13 1021.3 1021.3 0.0
27/07:00pm 17.7 12.1 3.6 39 6.6 E 22 30 12 16 1020.8 1020.8 0.0
27/06:30pm 18.3 12.4 4.1 39 6.7 E 24 32 13 17 1020.1 1020.1 0.0
27/06:00pm 19.1 12.5 4.1 37 7.1 ENE 28 37 15 20 1019.3 1019.3 0.0
27/05:30pm 20.5 13.5 4.1 34 7.9 ENE 30 41 16 22 1018.7 1018.7 0.0
27/05:00pm 21.8 14.0 2.0 27 9.2 ENE 32 39 17 21 1018.0 1018.0 0.0
27/04:40pm 26.0 20.2 -4.5 13 13.0 E 17 44 9 24 1017.6 1017.6 0.0
27/04:30pm 26.0 21.2 -5.6 12 13.2 E 11 15 6 8 1017.3 1017.3 0.0
27/04:00pm 25.6 20.8 -5.9 12 13.0 NE 11 17 6 9 1017.1 1017.1 0.0
27/03:30pm 26.5 21.0 -5.2 12 13.4 WNW 15 22 8 12 1017.0 1017.0 0.0
27/03:00pm 26.7 20.5 -5.0 12 13.5 WNW 19 26 10 14 1016.9 1016.9 0.0
27/02:30pm 26.4 20.8 -6.4 11 13.6 NNW 15 24 8 13 1017.1 1017.1 0.0
27/02:00pm 27.3 22.5 -5.7 11 13.9 WNW 11 22 6 12 1017.4 1017.4 0.0
27/01:30pm 24.9 19.0 -5.4 13 12.6 N 17 24 9 13 1018.0 1018.0 0.0
27/01:00pm 24.8 20.1 -5.5 13 12.5 W 11 19 6 10 1018.4 1018.4 0.0
27/12:30pm 23.9 18.9 -4.3 15 11.9 NNW 13 24 7 13 1019.1 1019.1 0.0
27/12:00pm 24.1 19.1 -4.1 15 11.9 W 13 22 7 12 1019.5 1019.5 0.0
27/11:30am 22.7 18.3 -6.1 14 11.6 ENE 9 15 5 8 1020.1 1020.1 0.0
27/11:00am 22.2 17.8 -5.6 15 11.2 W 9 19 5 10 1020.7 1020.7 0.0
27/10:30am 21.3 16.5 -6.3 15 10.9 WNW 11 19 6 10 1021.4 1021.4 0.0
27/10:00am 20.5 15.8 -4.6 18 10.1 SSW 11 19 6 10 1021.7 1021.7 0.0
27/09:30am 20.1 16.6 -2.9 21 9.6 WNW 6 11 3 6 1021.9 1021.9 0.0
27/09:00am 18.7 14.9 -3.4 22 9.0 WNW 7 11 4 6 1022.0 1022.0 0.0
27/08:30am 17.5 13.8 -2.7 25 8.3 WNW 7 9 4 5 1022.0 1022.0 0.0
27/08:00am 15.5 11.6 -1.5 31 7.0 NW 9 11 5 6 1021.9 1021.9 0.0
27/07:30am 12.3 8.5 -0.9 40 5.3 NW 9 11 5 6 1021.8 1021.8 0.0
27/07:00am 9.2 7.2 -0.1 52 3.7 CALM 0 0 0 0 1021.4 1021.4 0.0
27/06:30am 5.1 3.0 -0.9 65 2.2 CALM 0 0 0 0 1021.1 1021.1 0.0
27/06:00am 2.5 -1.4 -1.5 75 1.4 S 9 9 5 5 1020.6 1020.6 0.0
27/05:30am 2.4 -1.2 -2.1 72 1.6 E 7 9 4 5 1020.1 1020.1 0.0
27/05:00am 3.0 -0.5 -1.5 72 1.6 ENE 7 9 4 5 1019.8 1019.8 0.0
27/04:30am 2.9 0.7 -1.8 71 1.7 CALM 0 7 0 4 1019.4 1019.4 0.0
27/04:00am 4.1 1.5 -1.5 67 2.0 ENE 2 7 1 4 1019.0 1019.0 0.0
27/03:30am 3.1 -0.9 -2.2 68 1.9 NNW 9 13 5 7 1019.0 1019.0 0.0
27/03:00am 4.2 1.9 -2.4 62 2.3 CALM 0 7 0 4 1018.7 1018.7 0.0
27/02:30am 5.3 2.7 -1.8 60 2.6 E 2 7 1 4 1018.8 1018.8 0.0
27/02:00am 6.0 3.7 -2.1 56 2.9 CALM 0 6 0 3 1019.2 1019.2 0.0
27/01:30am 7.4 3.8 -2.3 50 3.6 SW 7 9 4 5 1019.3 1019.3 0.0
27/01:00am 8.2 4.5 -2.7 46 4.0 SW 7 11 4 6 1019.6 1019.6 0.0
27/12:30am 7.9 5.0 -3.9 43 4.2 SW 2 7 1 4 1019.6 1019.6 0.0
27/12:00am 10.4 6.3 -3.3 38 5.1 ESE 9 11 5 6 1019.7 1019.7 0.0
 
Date/Time
EST
Temp
°C
App
Temp
°C
Dew
Point
°C
Rel
Hum
%
Delta-T
°C
Wind Press
QNH
hPa
Press
MSL
hPa
Rain since
9am
mm
Dir  Spd
km/h
Gust
km/h
Spd
kts
Gust
kts
26/11:30pm 12.1 8.3 -4.1 32 6.1 SE 7 11 4 6 1019.6 1019.6 0.0
26/11:00pm 13.8 8.0 -4.4 28 6.9 WSW 17 20 9 11 1019.4 1019.4 0.0
26/10:30pm 15.1 10.0 -4.8 25 7.6 WSW 13 17 7 9 1019.5 1019.5 0.0
26/10:00pm 15.6 10.5 -4.9 24 7.8 WSW 13 17 7 9 1019.6 1019.6 0.0
26/09:30pm 14.5 10.3 -3.8 28 7.1 WSW 9 15 5 8 1019.5 1019.5 0.0
26/09:00pm 13.7 9.8 -4.5 28 6.8 SW 7 11 4 6 1019.2 1019.2 0.0
26/08:30pm 16.2 10.4 -4.4 24 8.0 W 17 20 9 11 1018.9 1018.9 0.0
26/08:00pm 16.4 11.4 -4.2 24 8.0 WSW 13 17 7 9 1018.5 1018.5 0.0
26/07:30pm 16.7 12.4 -5.1 22 8.4 WSW 9 13 5 7 1017.9 1017.9 0.0
26/07:00pm 18.0 12.9 -5.3 20 9.0 SW 13 19 7 10 1017.2 1017.2 0.0
26/06:30pm 18.5 12.2 -5.5 19 9.3 W 19 24 10 13 1016.5 1016.5 0.0
26/06:00pm 19.1 12.8 -5.7 18 9.7 W 19 24 10 13 1015.6 1015.6 0.0
26/05:30pm 20.7 13.5 -5.2 17 10.4 WSW 24 32 13 17 1014.9 1014.8 0.0
26/05:00pm 21.8 14.5 -5.9 15 11.1 WSW 24 33 13 18 1014.4 1014.3 0.0
26/04:30pm 22.5 15.2 -6.3 14 11.5 WSW 24 37 13 20 1014.0 1013.9 0.0
26/04:00pm 23.6 15.1 -7.4 12 12.3 WSW 30 43 16 23 1013.4 1013.3 0.0
26/03:30pm 23.8 14.7 -7.3 12 12.3 W 33 46 18 25 1013.2 1013.1 0.0
26/03:00pm 24.1 16.0 -7.0 12 12.4 WSW 28 43 15 23 1013.0 1012.9 0.0
26/02:34pm 24.0 16.0 -6.1 13 12.2 W 28 46 15 25 1013.2 1013.1 0.0
26/02:30pm 24.1 15.7 -6.0 13 12.3 W 30 41 16 22 1013.2 1013.1 0.0
26/02:00pm 24.0 15.0 -6.1 13 12.2 W 33 50 18 27 1013.3 1013.2 0.0
26/01:33pm 23.7 14.8 -5.3 14 11.9 WSW 33 52 18 28 1013.5 1013.4 0.0
26/01:30pm 23.4 13.7 -5.6 14 11.8 W 37 52 20 28 1013.6 1013.5 0.0
26/01:20pm 23.6 14.9 -5.4 14 11.9 WSW 32 50 17 27 1013.6 1013.5 0.0
26/01:00pm 23.6 14.4 -4.5 15 11.7 W 35 50 19 27 1013.7 1013.6 0.0
26/12:30pm 23.9 14.6 -5.2 14 12.0 WSW 35 52 19 28 1014.1 1014.0 0.0
26/12:20pm 23.4 14.5 -5.6 14 11.8 W 33 52 18 28 1014.1 1014.0 0.0
26/12:00pm 23.1 13.3 -6.8 13 11.9 W 37 50 20 27 1014.2 1014.1 0.0
26/11:37am 22.9 13.1 -6.9 13 11.8 W 37 56 20 30 1014.4 1014.3 0.0
26/11:30am 22.7 12.5 -7.1 13 11.7 WNW 39 56 21 30 1014.5 1014.4 0.0
26/11:04am 21.7 11.1 -6.9 14 11.2 W 41 59 22 32 1014.8 1014.7 0.0
26/11:00am 22.2 11.2 -5.6 15 11.2 W 44 59 24 32 1014.8 1014.7 0.0
26/10:50am 21.9 13.2 -3.5 18 10.7 W 33 54 18 29 1014.9 1014.8 0.0
26/10:30am 21.0 12.7 -1.5 22 9.7 WNW 32 43 17 23 1015.2 1015.1 0.0
26/10:00am 20.4 11.9 -2.0 22 9.5 W 33 50 18 27 1015.4 1015.4 0.0
26/09:36am 19.5 11.0 -1.6 24 9.0 W 33 52 18 28 1015.5 1015.5 0.0
26/09:30am 19.8 11.0 -1.3 24 9.1 W 35 52 19 28 1015.5 1015.5 0.0
26/09:00am 19.1 11.3 -0.8 26 8.6 W 30 43 16 23 1015.6 1015.6 0.0
26/08:30am 18.0 9.8 -1.3 27 8.2 WNW 32 43 17 23 1015.6 1015.6 0.0
26/08:00am 17.5 9.3 -0.7 29 7.7 WNW 32 43 17 23 1015.3 1015.3 0.0
26/07:30am 17.0 10.2 -1.6 28 7.7 WNW 24 35 13 19 1015.0 1014.9 0.0
26/07:00am 15.8 9.4 -1.7 30 7.2 WNW 22 32 12 17 1014.5 1014.4 0.0
26/06:30am 14.6 8.2 -1.5 33 6.6 NW 22 28 12 15 1013.9 1013.8 0.0
26/06:00am 13.4 7.6 -0.3 39 5.7 NW 20 26 11 14 1013.3 1013.2 0.0
26/05:30am 13.1 7.5 1.1 44 5.1 NW 20 26 11 14 1012.8 1012.7 0.0
26/05:00am 13.9 8.3 1.5 43 5.4 NW 20 30 11 16 1012.4 1012.3 0.0
26/04:30am 14.5 8.7 2.1 43 5.5 NW 22 28 12 15 1012.0 1011.9 0.0
26/04:00am 15.1 9.1 3.3 45 5.4 NW 24 32 13 17 1011.7 1011.6 0.0
26/03:30am 15.8 11.2 3.6 44 5.6 WNW 17 26 9 14 1011.2 1011.1 0.0
26/03:00am 17.3 10.6 3.9 41 6.3 W 28 39 15 21 1011.0 1010.9 0.0
26/02:30am 18.6 10.9 3.6 37 7.0 W 33 43 18 23 1010.5 1010.4 0.0
26/02:00am 20.4 12.2 0.3 26 9.0 W 33 48 18 26 1010.0 1009.9 0.0
26/01:30am 22.2 14.8 -0.5 22 10.1 W 28 39 15 21 1009.5 1009.4 0.0
26/01:22am 21.3 15.2 2.6 29 8.8 WNW 24 39 13 21 1009.4 1009.3 0.0
26/01:00am 18.0 16.7 14.7 81 1.9 NW 15 17 8 9 1009.2 1009.1 0.0
26/12:30am 18.9 17.5 14.4 75 2.6 NNW 15 19 8 10 1009.0 1008.9 0.0
26/12:00am 21.6 20.0 15.0 66 3.9 NW 17 22 9 12 1008.9 1008.8 0.0
 
Date/Time
EST
Temp
°C
App
Temp
°C
Dew
Point
°C
Rel
Hum
%
Delta-T
°C
Wind Press
QNH
hPa
Press
MSL
hPa
Rain since
9am
mm
Dir  Spd
km/h
Gust
km/h
Spd
kts
Gust
kts
25/11:30pm 21.2 20.1 15.3 69 3.5 NW 15 19 8 10 1008.8 1008.7 0.0
25/11:00pm 22.3 21.0 15.9 67 3.9 NW 17 22 9 12 1008.7 1008.6 0.0
25/10:30pm 22.7 21.1 16.0 66 4.0 NNW 19 28 10 15 1008.7 1008.6 0.0
25/10:00pm 23.5 20.9 15.8 62 4.7 NNW 24 33 13 18 1008.4 1008.3 0.0
25/09:30pm 24.2 22.0 15.9 59 5.0 NNW 22 32 12 17 1008.5 1008.4 0.0
25/09:00pm 24.8 21.6 15.4 56 5.7 NNW 26 37 14 20 1008.2 1008.1 0.0
25/08:30pm 23.5 24.5 15.3 60 4.9 SSW 4 15 2 8 1007.7 1007.6 0.0
25/08:00pm 24.6 26.3 16.1 59 5.2 N 2 7 1 4 1007.3 1007.2 0.0
25/07:30pm 25.2 24.1 16.4 58 5.4 N 17 24 9 13 1006.9 1006.8 0.0
25/07:00pm 25.2 23.8 16.9 60 5.2 NNE 20 30 11 16 1006.4 1006.3 0.0
25/06:30pm 25.6 23.8 17.0 59 5.3 NE 22 32 12 17 1005.8 1005.7 0.0
25/06:00pm 26.1 25.1 16.6 55 5.9 NE 17 20 9 11 1005.7 1005.6 0.0
25/05:30pm 26.6 25.0 16.5 54 6.2 NE 20 30 11 16 1005.5 1005.4 0.0
25/05:00pm 27.3 25.9 16.9 53 6.5 NE 20 30 11 16 1005.3 1005.2 0.0
25/04:30pm 27.5 25.5 16.5 51 6.8 NE 22 33 12 18 1005.3 1005.2 0.0
25/04:00pm 31.8 27.0 4.6 18 14.3 N 19 28 10 15 1005.4 1005.3 0.0
25/03:30pm 31.7 28.2 5.3 19 13.9 NE 13 26 7 14 1005.5 1005.4 0.0
25/03:00pm 28.1 26.3 15.4 46 7.8 E 19 37 10 20 1006.0 1005.9 0.0
25/02:30pm 28.5 27.4 16.4 48 7.5 E 17 32 9 17 1006.4 1006.3 0.0
25/02:00pm 30.2 26.1 8.0 25 12.2 NNW 19 30 10 16 1007.1 1007.0 0.0
25/01:30pm 29.5 24.6 8.5 27 11.6 NNW 24 37 13 20 1007.6 1007.5 0.0
25/01:00pm 29.2 25.3 8.8 28 11.3 NNW 19 28 10 15 1008.4 1008.3 0.0
25/12:30pm 29.3 24.4 8.4 27 11.5 N 24 43 13 23 1009.0 1008.9 0.0
25/12:00pm 29.5 25.4 11.5 33 10.4 NNW 24 33 13 18 1010.2 1010.1 0.0
25/11:30am 28.0 24.4 12.0 37 9.3 NNW 22 33 12 18 1011.2 1011.1 0.0
25/11:00am 26.5 24.1 11.4 39 8.6 NW 15 26 8 14 1012.1 1012.0 0.0
25/10:30am 25.9 24.2 12.4 43 7.8 NNW 13 22 7 12 1012.8 1012.7 0.0
25/10:00am 24.9 23.9 13.5 49 6.7 ENE 11 17 6 9 1013.4 1013.3 0.0
25/09:30am 23.5 22.6 11.5 47 6.7 NW 7 13 4 7 1014.1 1014.0 0.0
25/09:00am 21.2 20.0 9.4 47 6.3 SW 6 11 3 6 1014.6 1014.5 0.0
25/08:30am 19.5 17.9 7.9 47 6.0 SSW 6 9 3 5 1015.0 1014.9 0.0
25/08:00am 17.4 15.5 6.9 50 5.2 S 6 7 3 4 1015.0 1014.9 0.0
25/07:30am 14.8 13.1 7.6 62 3.6 N 6 9 3 5 1015.0 1014.9 0.0

Other formats

Comma delimited format used in spreadsheet applications
http://www.bom.gov.au/fwo/IDQ60801/IDQ60801.94568.axf

JavaScript Object Notation format (JSON) in row-major order
http://www.bom.gov.au/fwo/IDQ60801/IDQ60801.94568.json

Data quality

Most of these data are generated automatically and are frequently updated. Quality checks on data are not normally performed. It is possible for incorrect values to appear. Refer to information at About Latest Weather Observations and please check the disclaimer before using these data.